sensor_id;sensor_type;location;lat;lon;timestamp;pressure;altitude;pressure_sealevel;temperature;humidity
38806;BME280;25635;51.146;17.162;2023-04-02T00:07:50;99234.39;;;5.62;95.92
38806;BME280;25635;51.146;17.162;2023-04-02T00:10:38;99239.58;;;5.58;95.78
38806;BME280;25635;51.146;17.162;2023-04-02T00:15:36;99240.98;;;5.50;95.27
38806;BME280;25635;51.146;17.162;2023-04-02T00:18:04;99245.34;;;5.41;95.25
38806;BME280;25635;51.146;17.162;2023-04-02T00:20:34;99248.12;;;5.35;95.48
38806;BME280;25635;51.146;17.162;2023-04-02T00:23:04;99249.16;;;5.27;95.36
38806;BME280;25635;51.146;17.162;2023-04-02T00:25:35;99255.05;;;5.21;95.15
38806;BME280;25635;51.146;17.162;2023-04-02T00:28:02;99258.52;;;5.17;95.58
38806;BME280;25635;51.146;17.162;2023-04-02T00:30:30;99260.77;;;5.14;95.32
38806;BME280;25635;51.146;17.162;2023-04-02T00:32:57;99263.88;;;5.11;95.41
38806;BME280;25635;51.146;17.162;2023-04-02T00:35:26;99266.30;;;5.07;95.25
38806;BME280;25635;51.146;17.162;2023-04-02T00:37:54;99270.09;;;5.04;95.65
38806;BME280;25635;51.146;17.162;2023-04-02T00:40:27;99276.85;;;4.99;95.28
38806;BME280;25635;51.146;17.162;2023-04-02T00:42:57;99278.39;;;4.92;95.37
38806;BME280;25635;51.146;17.162;2023-04-02T00:45:27;99280.98;;;4.86;95.85
38806;BME280;25635;51.146;17.162;2023-04-02T00:47:58;99282.88;;;4.84;95.87
38806;BME280;25635;51.146;17.162;2023-04-02T00:50:33;99283.58;;;4.85;96.09
38806;BME280;25635;51.146;17.162;2023-04-02T00:53:09;99287.21;;;4.86;96.33
38806;BME280;25635;51.146;17.162;2023-04-02T00:55:38;99286.16;;;4.87;96.22
38806;BME280;25635;51.146;17.162;2023-04-02T00:58:28;99291.17;;;4.85;96.14
38806;BME280;25635;51.146;17.162;2023-04-02T01:00:58;99294.80;;;4.81;96.19
38806;BME280;25635;51.146;17.162;2023-04-02T01:03:29;99298.94;;;4.79;96.30
38806;BME280;25635;51.146;17.162;2023-04-02T02:02:16;99368.30;;;4.12;96.17
38806;BME280;25635;51.146;17.162;2023-04-02T04:18:42;99595.51;;;2.48;95.49
38806;BME280;25635;51.146;17.162;2023-04-02T04:22:34;99601.60;;;2.41;95.02
38806;BME280;25635;51.146;17.162;2023-04-02T04:36:44;99622.56;;;2.28;95.49
38806;BME280;25635;51.146;17.162;2023-04-02T06:40:41;99824.77;;;2.59;93.79
38806;BME280;25635;51.146;17.162;2023-04-02T10:48:59;100161.92;;;3.52;85.02
38806;BME280;25635;51.146;17.162;2023-04-02T11:32:35;100213.24;;;3.75;81.96
38806;BME280;25635;51.146;17.162;2023-04-02T11:39:53;100216.83;;;3.81;82.88
38806;BME280;25635;51.146;17.162;2023-04-02T12:57:43;100295.70;;;4.09;81.79
38806;BME280;25635;51.146;17.162;2023-04-02T13:01:27;100300.59;;;4.12;81.29
38806;BME280;25635;51.146;17.162;2023-04-02T13:05:09;100301.70;;;4.17;81.68
38806;BME280;25635;51.146;17.162;2023-04-02T13:08:37;100308.01;;;4.22;81.76
38806;BME280;25635;51.146;17.162;2023-04-02T13:22:46;100318.19;;;4.30;81.41
38806;BME280;25635;51.146;17.162;2023-04-02T14:58:33;100405.89;;;4.56;80.86
38806;BME280;25635;51.146;17.162;2023-04-02T17:25:00;100595.42;;;3.81;83.04
38806;BME280;25635;51.146;17.162;2023-04-02T17:27:47;100597.47;;;3.81;83.25
38806;BME280;25635;51.146;17.162;2023-04-02T17:30:31;100599.48;;;3.79;82.78
38806;BME280;25635;51.146;17.162;2023-04-02T17:33:06;100600.98;;;3.77;82.65
38806;BME280;25635;51.146;17.162;2023-04-02T17:41:33;100612.75;;;3.77;82.79
38806;BME280;25635;51.146;17.162;2023-04-02T17:47:05;100612.92;;;3.78;82.55
38806;BME280;25635;51.146;17.162;2023-04-02T17:50:26;100615.64;;;3.76;82.42
38806;BME280;25635;51.146;17.162;2023-04-02T17:53:42;100618.15;;;3.74;82.62
38806;BME280;25635;51.146;17.162;2023-04-02T18:01:30;100636.59;;;3.73;80.40
38806;BME280;25635;51.146;17.162;2023-04-02T18:04:33;100639.01;;;3.73;79.71
38806;BME280;25635;51.146;17.162;2023-04-02T18:10:15;100654.12;;;3.71;79.74
38806;BME280;25635;51.146;17.162;2023-04-02T18:15:44;100664.40;;;3.68;77.42
38806;BME280;25635;51.146;17.162;2023-04-02T18:21:36;100673.50;;;3.66;78.03
38806;BME280;25635;51.146;17.162;2023-04-02T18:29:27;100687.06;;;3.64;77.69
38806;BME280;25635;51.146;17.162;2023-04-02T18:40:25;100704.75;;;3.61;77.87
38806;BME280;25635;51.146;17.162;2023-04-02T18:44:07;100710.58;;;3.60;78.07
38806;BME280;25635;51.146;17.162;2023-04-02T18:46:12;100707.25;;;3.58;77.69
38806;BME280;25635;51.146;17.162;2023-04-02T18:48:54;100710.04;;;3.59;78.23
38806;BME280;25635;51.146;17.162;2023-04-02T18:51:27;100711.40;;;3.59;77.84
38806;BME280;25635;51.146;17.162;2023-04-02T18:56:38;100719.80;;;3.57;78.74
38806;BME280;25635;51.146;17.162;2023-04-02T18:59:30;100722.16;;;3.55;78.60
38806;BME280;25635;51.146;17.162;2023-04-02T19:02:13;100724.55;;;3.54;78.26
38806;BME280;25635;51.146;17.162;2023-04-02T19:04:50;100725.77;;;3.55;78.28
38806;BME280;25635;51.146;17.162;2023-04-02T19:07:19;100728.54;;;3.55;77.88
38806;BME280;25635;51.146;17.162;2023-04-02T19:09:47;100732.55;;;3.56;77.88
38806;BME280;25635;51.146;17.162;2023-04-02T19:12:21;100734.45;;;3.57;77.49
38806;BME280;25635;51.146;17.162;2023-04-02T19:14:49;100734.95;;;3.56;77.35
38806;BME280;25635;51.146;17.162;2023-04-02T19:17:43;100734.61;;;3.56;77.93
38806;BME280;25635;51.146;17.162;2023-04-02T19:20:40;100740.45;;;3.55;77.95
38806;BME280;25635;51.146;17.162;2023-04-02T19:23:48;100744.41;;;3.55;77.82
38806;BME280;25635;51.146;17.162;2023-04-02T19:26:14;100744.28;;;3.57;77.79
38806;BME280;25635;51.146;17.162;2023-04-02T19:29:07;100747.41;;;3.58;77.84
38806;BME280;25635;51.146;17.162;2023-04-02T19:37:16;100753.66;;;3.59;77.76
38806;BME280;25635;51.146;17.162;2023-04-02T19:42:52;100757.89;;;3.56;78.08
38806;BME280;25635;51.146;17.162;2023-04-02T19:47:55;100759.45;;;3.57;77.51
38806;BME280;25635;51.146;17.162;2023-04-02T19:50:23;100759.64;;;3.57;77.29
38806;BME280;25635;51.146;17.162;2023-04-02T19:52:50;100762.23;;;3.58;77.26
38806;BME280;25635;51.146;17.162;2023-04-02T19:55:17;100765.66;;;3.57;76.97
38806;BME280;25635;51.146;17.162;2023-04-02T19:57:44;100769.91;;;3.55;77.16
38806;BME280;25635;51.146;17.162;2023-04-02T20:00:13;100772.28;;;3.54;77.44
38806;BME280;25635;51.146;17.162;2023-04-02T20:02:40;100772.75;;;3.52;77.17
38806;BME280;25635;51.146;17.162;2023-04-02T20:05:07;100771.84;;;3.50;76.12
38806;BME280;25635;51.146;17.162;2023-04-02T20:07:34;100774.27;;;3.51;75.81
38806;BME280;25635;51.146;17.162;2023-04-02T20:10:01;100774.60;;;3.50;75.57
38806;BME280;25635;51.146;17.162;2023-04-02T20:12:27;100777.50;;;3.49;76.04
38806;BME280;25635;51.146;17.162;2023-04-02T20:14:54;100776.77;;;3.48;76.03
38806;BME280;25635;51.146;17.162;2023-04-02T20:17:20;100779.65;;;3.46;76.22
38806;BME280;25635;51.146;17.162;2023-04-02T20:19:47;100781.98;;;3.43;75.98
38806;BME280;25635;51.146;17.162;2023-04-02T20:22:14;100786.73;;;3.40;74.84
38806;BME280;25635;51.146;17.162;2023-04-02T20:24:41;100789.59;;;3.38;74.22
38806;BME280;25635;51.146;17.162;2023-04-02T20:27:07;100789.89;;;3.36;74.15
38806;BME280;25635;51.146;17.162;2023-04-02T20:29:34;100791.48;;;3.32;72.88
38806;BME280;25635;51.146;17.162;2023-04-02T20:32:01;100796.53;;;3.29;73.17
38806;BME280;25635;51.146;17.162;2023-04-02T20:34:32;100799.52;;;3.25;73.27
38806;BME280;25635;51.146;17.162;2023-04-02T20:36:58;100807.16;;;3.21;73.51
38806;BME280;25635;51.146;17.162;2023-04-02T20:39:34;100811.90;;;3.19;73.26
38806;BME280;25635;51.146;17.162;2023-04-02T20:42:02;100813.35;;;3.16;72.07
38806;BME280;25635;51.146;17.162;2023-04-02T20:44:29;100811.03;;;3.13;71.63
38806;BME280;25635;51.146;17.162;2023-04-02T20:46:56;100811.79;;;3.10;71.53
38806;BME280;25635;51.146;17.162;2023-04-02T20:49:23;100817.02;;;3.06;72.33
38806;BME280;25635;51.146;17.162;2023-04-02T20:51:50;100813.77;;;3.01;72.09
38806;BME280;25635;51.146;17.162;2023-04-02T20:54:16;100817.11;;;2.98;71.77
38806;BME280;25635;51.146;17.162;2023-04-02T20:56:43;100819.40;;;2.95;71.85
38806;BME280;25635;51.146;17.162;2023-04-02T20:59:10;100826.71;;;2.92;72.37
38806;BME280;25635;51.146;17.162;2023-04-02T21:01:37;100824.22;;;2.89;72.61
38806;BME280;25635;51.146;17.162;2023-04-02T21:04:03;100832.04;;;2.86;72.29
38806;BME280;25635;51.146;17.162;2023-04-02T21:06:33;100829.91;;;2.84;72.58
38806;BME280;25635;51.146;17.162;2023-04-02T21:09:05;100829.30;;;2.82;72.76
38806;BME280;25635;51.146;17.162;2023-04-02T21:11:35;100835.09;;;2.79;72.78
38806;BME280;25635;51.146;17.162;2023-04-02T21:14:07;100837.05;;;2.76;72.64
38806;BME280;25635;51.146;17.162;2023-04-02T21:16:34;100839.48;;;2.72;72.62
38806;BME280;25635;51.146;17.162;2023-04-02T21:19:05;100841.08;;;2.68;72.00
38806;BME280;25635;51.146;17.162;2023-04-02T21:21:34;100841.28;;;2.64;71.85
38806;BME280;25635;51.146;17.162;2023-04-02T21:24:10;100841.31;;;2.60;71.60
38806;BME280;25635;51.146;17.162;2023-04-02T21:26:38;100839.98;;;2.57;71.82
38806;BME280;25635;51.146;17.162;2023-04-02T21:29:05;100847.32;;;2.54;71.82
38806;BME280;25635;51.146;17.162;2023-04-02T21:31:37;100848.80;;;2.53;72.41
38806;BME280;25635;51.146;17.162;2023-04-02T21:34:07;100852.04;;;2.51;72.49
38806;BME280;25635;51.146;17.162;2023-04-02T21:36:38;100851.10;;;2.49;73.00
38806;BME280;25635;51.146;17.162;2023-04-02T21:39:19;100862.08;;;2.48;73.20
38806;BME280;25635;51.146;17.162;2023-04-02T21:41:48;100864.20;;;2.45;73.29
38806;BME280;25635;51.146;17.162;2023-04-02T21:44:22;100867.04;;;2.42;73.01
38806;BME280;25635;51.146;17.162;2023-04-02T21:46:57;100871.11;;;2.41;72.92
38806;BME280;25635;51.146;17.162;2023-04-02T21:49:26;100868.48;;;2.39;73.18
38806;BME280;25635;51.146;17.162;2023-04-02T21:51:53;100872.27;;;2.40;73.27
38806;BME280;25635;51.146;17.162;2023-04-02T21:54:20;100866.56;;;2.39;73.23
38806;BME280;25635;51.146;17.162;2023-04-02T21:56:46;100868.91;;;2.37;72.98
38806;BME280;25635;51.146;17.162;2023-04-02T21:59:15;100874.67;;;2.34;72.60
38806;BME280;25635;51.146;17.162;2023-04-02T22:01:48;100873.19;;;2.32;72.67
38806;BME280;25635;51.146;17.162;2023-04-02T22:04:19;100878.23;;;2.28;72.77
38806;BME280;25635;51.146;17.162;2023-04-02T22:06:48;100876.20;;;2.24;72.19
38806;BME280;25635;51.146;17.162;2023-04-02T22:09:21;100876.02;;;2.20;71.83
38806;BME280;25635;51.146;17.162;2023-04-02T22:11:51;100885.05;;;2.17;72.35
38806;BME280;25635;51.146;17.162;2023-04-02T22:14:24;100885.67;;;2.15;72.94
38806;BME280;25635;51.146;17.162;2023-04-02T22:16:51;100884.92;;;2.14;72.21
38806;BME280;25635;51.146;17.162;2023-04-02T22:19:17;100888.31;;;2.12;72.87
38806;BME280;25635;51.146;17.162;2023-04-02T22:21:44;100891.04;;;2.11;72.94
38806;BME280;25635;51.146;17.162;2023-04-02T22:24:13;100892.16;;;2.09;72.67
38806;BME280;25635;51.146;17.162;2023-04-02T22:26:40;100892.94;;;2.07;72.92
38806;BME280;25635;51.146;17.162;2023-04-02T22:29:07;100899.37;;;2.04;72.90
38806;BME280;25635;51.146;17.162;2023-04-02T22:31:34;100897.50;;;2.00;72.74
38806;BME280;25635;51.146;17.162;2023-04-02T22:34:03;100894.09;;;1.96;72.77
38806;BME280;25635;51.146;17.162;2023-04-02T22:36:30;100898.27;;;1.93;73.04
38806;BME280;25635;51.146;17.162;2023-04-02T22:38:58;100898.19;;;1.91;73.08
38806;BME280;25635;51.146;17.162;2023-04-02T22:41:28;100899.14;;;1.89;72.76
38806;BME280;25635;51.146;17.162;2023-04-02T22:43:58;100902.67;;;1.87;72.14
38806;BME280;25635;51.146;17.162;2023-04-02T22:46:26;100904.11;;;1.84;72.27
38806;BME280;25635;51.146;17.162;2023-04-02T22:48:53;100901.91;;;1.80;72.31
38806;BME280;25635;51.146;17.162;2023-04-02T22:51:21;100904.53;;;1.77;72.81
38806;BME280;25635;51.146;17.162;2023-04-02T22:53:49;100906.62;;;1.73;73.06
38806;BME280;25635;51.146;17.162;2023-04-02T22:56:18;100909.20;;;1.69;72.97
38806;BME280;25635;51.146;17.162;2023-04-02T22:58:45;100906.84;;;1.66;73.11
38806;BME280;25635;51.146;17.162;2023-04-02T23:01:18;100909.95;;;1.62;72.66
38806;BME280;25635;51.146;17.162;2023-04-02T23:03:49;100909.44;;;1.57;72.42
38806;BME280;25635;51.146;17.162;2023-04-02T23:06:22;100912.27;;;1.55;72.86
38806;BME280;25635;51.146;17.162;2023-04-02T23:09:00;100912.42;;;1.50;72.76
38806;BME280;25635;51.146;17.162;2023-04-02T23:11:27;100913.23;;;1.45;72.68
38806;BME280;25635;51.146;17.162;2023-04-02T23:13:55;100915.23;;;1.39;72.21
38806;BME280;25635;51.146;17.162;2023-04-02T23:16:24;100917.52;;;1.32;72.82
38806;BME280;25635;51.146;17.162;2023-04-02T23:18:52;100916.27;;;1.26;72.94
38806;BME280;25635;51.146;17.162;2023-04-02T23:21:19;100920.21;;;1.22;73.12
38806;BME280;25635;51.146;17.162;2023-04-02T23:23:46;100921.20;;;1.17;73.08
38806;BME280;25635;51.146;17.162;2023-04-02T23:28:40;100926.36;;;1.05;73.65
38806;BME280;25635;51.146;17.162;2023-04-02T23:31:10;100930.41;;;0.99;73.72
38806;BME280;25635;51.146;17.162;2023-04-02T23:33:38;100934.73;;;0.91;73.62
38806;BME280;25635;51.146;17.162;2023-04-02T23:36:09;100932.18;;;0.84;73.86
38806;BME280;25635;51.146;17.162;2023-04-02T23:38:36;100934.00;;;0.78;73.94
38806;BME280;25635;51.146;17.162;2023-04-02T23:41:03;100935.44;;;0.72;74.17
38806;BME280;25635;51.146;17.162;2023-04-02T23:43:30;100936.30;;;0.69;74.07
38806;BME280;25635;51.146;17.162;2023-04-02T23:45:57;100936.64;;;0.64;74.06
38806;BME280;25635;51.146;17.162;2023-04-02T23:48:23;100936.58;;;0.59;74.22
38806;BME280;25635;51.146;17.162;2023-04-02T23:50:50;100932.90;;;0.53;74.44
38806;BME280;25635;51.146;17.162;2023-04-02T23:53:17;100936.27;;;0.48;74.87
38806;BME280;25635;51.146;17.162;2023-04-02T23:55:44;100937.37;;;0.42;74.94
38806;BME280;25635;51.146;17.162;2023-04-02T23:58:11;100936.92;;;0.36;75.12
